createdAt,value
2018-12-25T00:03:57.771Z,2.1
2018-12-25T00:09:52.761Z,1.51
2018-12-25T00:15:47.776Z,2.38
2018-12-25T00:21:42.800Z,1.53
2018-12-25T00:27:37.777Z,1.74
2018-12-25T00:33:32.790Z,1.4
2018-12-25T00:39:27.807Z,2.08
2018-12-25T00:45:22.799Z,1.66
2018-12-25T00:51:17.795Z,1.65
2018-12-25T00:57:12.811Z,1.31
2018-12-25T01:03:07.835Z,1.52
2018-12-25T01:09:02.809Z,1.42
2018-12-25T01:14:57.842Z,1.69
2018-12-25T01:20:52.828Z,1.51
2018-12-25T01:26:47.837Z,1.6
2018-12-25T01:32:42.831Z,1.59
2018-12-25T01:38:37.827Z,1.75
2018-12-25T01:44:32.824Z,1.74
2018-12-25T01:50:27.833Z,1.76
2018-12-25T01:56:22.863Z,1.65
2018-12-25T02:02:17.866Z,1.54
2018-12-25T02:08:12.847Z,1.97
2018-12-25T02:14:07.836Z,1.46
2018-12-25T02:20:02.879Z,1.64
2018-12-25T02:25:57.864Z,1.67
2018-12-25T02:31:52.860Z,1.47
2018-12-25T02:37:47.841Z,1.5
2018-12-25T02:43:42.873Z,1.46
2018-12-25T02:49:37.906Z,1.72
2018-12-25T02:55:32.890Z,1.27
2018-12-25T03:01:27.860Z,1.12
2018-12-25T03:07:22.900Z,1.12
2018-12-25T03:13:17.883Z,1.53
2018-12-25T03:19:12.882Z,1.3
2018-12-25T03:25:07.881Z,1.54
2018-12-25T03:31:02.890Z,2.04
2018-12-25T03:36:57.899Z,1.58
2018-12-25T03:42:52.936Z,1.32
2018-12-25T03:48:47.903Z,1.4
2018-12-25T03:54:42.900Z,1.63
2018-12-25T04:00:37.916Z,1.35
2018-12-25T04:06:32.887Z,1.27
2018-12-25T04:12:27.941Z,1.17
2018-12-25T04:18:22.925Z,1.28
2018-12-25T04:24:17.938Z,1.11
2018-12-25T04:30:12.886Z,0.99
2018-12-25T04:36:07.944Z,0.92
2018-12-25T04:42:02.954Z,1.22
2018-12-25T04:47:57.964Z,1.48
2018-12-25T04:53:52.917Z,1.01
2018-12-25T04:59:47.923Z,1.2
2018-12-25T05:05:42.928Z,1.24
2018-12-25T05:11:37.953Z,1.19
2018-12-25T05:17:32.931Z,1.32
2018-12-25T05:23:27.945Z,1.2
2018-12-25T05:29:22.932Z,1.09
2018-12-25T05:35:17.932Z,1.03
2018-12-25T05:41:12.947Z,1.15
2018-12-25T05:47:07.979Z,1
2018-12-25T05:53:02.951Z,1.34
2018-12-25T05:58:57.963Z,1.15
2018-12-25T06:04:52.972Z,1.26
2018-12-25T06:10:47.991Z,0.99
2018-12-25T06:16:43.068Z,1.29
2018-12-25T06:22:37.994Z,1.49
2018-12-25T06:28:32.961Z,1.38
2018-12-25T06:34:27.960Z,1.71
2018-12-25T06:40:23.021Z,1.93
2018-12-25T06:46:17.978Z,1.72
2018-12-25T06:52:12.987Z,1.58
2018-12-25T06:58:08.002Z,1.71
2018-12-25T07:04:02.972Z,1.89
2018-12-25T07:09:57.992Z,1.85
2018-12-25T07:15:53.021Z,1.58
2018-12-25T07:21:47.974Z,1.54
2018-12-25T07:27:43.013Z,2.44
2018-12-25T07:33:37.982Z,2.68
2018-12-25T07:39:33.018Z,2.92
2018-12-25T07:45:28.051Z,2.86
2018-12-25T07:51:23.037Z,3.23
2018-12-25T07:57:18.065Z,2.34
2018-12-25T08:03:13.002Z,2.36
2018-12-25T08:09:08.000Z,2.94
2018-12-25T08:15:03.031Z,6.39
2018-12-25T08:20:58.019Z,8.94
2018-12-25T08:26:53.027Z,10.83
2018-12-25T08:32:48.021Z,11.66
2018-12-25T08:38:43.052Z,11.67
2018-12-25T08:44:38.043Z,11.29
2018-12-25T08:50:33.042Z,10
2018-12-25T08:56:28.052Z,10.16
2018-12-25T09:02:23.070Z,9.05
2018-12-25T09:08:18.038Z,5.97
2018-12-25T09:14:13.064Z,4.66
2018-12-25T09:20:08.036Z,4.76
2018-12-25T09:26:03.052Z,6.01
2018-12-25T09:31:58.050Z,6.88
2018-12-25T09:37:53.046Z,7.3
2018-12-25T09:43:48.085Z,7.11
2018-12-25T09:49:43.048Z,8.13
2018-12-25T09:55:38.076Z,6.27
2018-12-25T10:01:33.077Z,6.55
2018-12-25T10:07:28.075Z,7.06
2018-12-25T10:13:23.071Z,6.59
2018-12-25T10:19:18.097Z,6.34
2018-12-25T10:25:13.101Z,7.95
2018-12-25T10:31:08.088Z,6.28
2018-12-25T10:37:03.114Z,6.55
2018-12-25T10:42:58.081Z,6.18
2018-12-25T10:48:53.106Z,5.9
2018-12-25T10:54:48.100Z,5
2018-12-25T11:00:43.080Z,4.53
2018-12-25T11:06:38.106Z,4.4
2018-12-25T11:12:33.115Z,4.1
2018-12-25T11:18:28.137Z,5.87
2018-12-25T11:24:23.141Z,6.16
2018-12-25T11:30:18.124Z,5.32
2018-12-25T11:36:13.117Z,5.5
2018-12-25T11:42:08.121Z,5.36
2018-12-25T11:48:03.277Z,4.29
2018-12-25T11:53:58.153Z,3.88
2018-12-25T11:59:53.160Z,5.91
2018-12-25T12:05:48.138Z,5.51
2018-12-25T12:11:43.140Z,2.69
2018-12-25T12:17:38.146Z,2.71
2018-12-25T12:23:33.173Z,2.79
2018-12-25T12:29:28.160Z,3.13
2018-12-25T12:35:23.194Z,2.27
2018-12-25T12:41:18.173Z,1.37
2018-12-25T12:47:13.189Z,1.45
2018-12-25T12:53:08.193Z,1.95
2018-12-25T13:04:58.206Z,4.99
2018-12-25T13:10:53.171Z,3.7
2018-12-25T13:16:48.195Z,3.87
2018-12-25T13:22:43.236Z,2.48
2018-12-25T13:28:38.221Z,2.79
2018-12-25T13:34:33.188Z,7.71
2018-12-25T13:40:28.257Z,2.62
2018-12-25T13:46:23.220Z,2.18
2018-12-25T13:52:18.225Z,1.84
2018-12-25T13:58:13.246Z,2.08
2018-12-25T14:04:08.221Z,3
2018-12-25T14:10:03.220Z,2.5
2018-12-25T14:15:58.221Z,2.53
2018-12-25T14:21:53.271Z,3.21
2018-12-25T14:27:48.220Z,3.48
2018-12-25T14:33:43.238Z,4.16
2018-12-25T14:39:38.274Z,3.8
2018-12-25T14:45:33.240Z,3.72
2018-12-25T14:51:28.242Z,3.5
2018-12-25T14:57:23.283Z,3.82
2018-12-25T15:03:18.261Z,4.13
2018-12-25T15:09:13.258Z,4.3
2018-12-25T15:15:08.264Z,4.38
2018-12-25T15:21:03.255Z,5.09
2018-12-25T15:26:58.254Z,5.01
2018-12-25T15:32:53.376Z,5.18
2018-12-25T15:38:48.298Z,4.64
2018-12-25T15:44:43.273Z,5.54
2018-12-25T15:50:38.307Z,8.59
2018-12-25T15:56:33.294Z,6.98
2018-12-25T16:02:28.281Z,9.92
2018-12-25T16:08:23.306Z,22.32
2018-12-25T16:14:18.277Z,6.28
2018-12-25T16:20:13.310Z,4.06
2018-12-25T16:26:08.301Z,4.26
2018-12-25T16:32:03.327Z,5.77
2018-12-25T16:37:58.303Z,4.12
2018-12-25T16:43:53.354Z,9.11
2018-12-25T16:49:48.300Z,6.14
2018-12-25T16:55:43.330Z,12.43
2018-12-25T17:01:38.310Z,9.23
2018-12-25T17:07:33.340Z,5.05
2018-12-25T17:13:28.332Z,6.2
2018-12-25T17:19:23.430Z,10.55
2018-12-25T17:25:18.352Z,12.99
2018-12-25T17:31:13.359Z,9.48
2018-12-25T17:37:08.433Z,4.37
2018-12-25T17:43:03.368Z,7.44
2018-12-25T17:48:59.021Z,15.48
2018-12-25T17:54:53.364Z,8.93
2018-12-25T18:00:48.382Z,10.11
2018-12-25T18:06:43.371Z,7.43
2018-12-25T18:12:38.357Z,6.24
2018-12-25T18:18:33.352Z,13.75
2018-12-25T18:24:28.353Z,5.76
2018-12-25T18:30:23.370Z,12.49
2018-12-25T18:36:18.380Z,15.5
2018-12-25T18:42:13.393Z,13.61
2018-12-25T18:48:08.368Z,20.14
2018-12-25T18:54:03.367Z,7
2018-12-25T18:59:58.434Z,4.56
2018-12-25T19:05:53.387Z,4.04
2018-12-25T19:11:48.407Z,11.86
2018-12-25T19:17:43.449Z,9.52
2018-12-25T19:23:38.384Z,11.03
2018-12-25T19:29:33.440Z,9.65
2018-12-25T19:35:28.403Z,14.46
2018-12-25T19:41:23.402Z,14.33
2018-12-25T19:47:18.408Z,12.01
2018-12-25T19:53:13.439Z,8.43
2018-12-25T19:59:08.401Z,20.97
2018-12-25T20:05:03.438Z,21.83
2018-12-25T20:10:58.448Z,24.03
2018-12-25T20:16:53.408Z,15.95
2018-12-25T20:22:48.450Z,9.49
2018-12-25T20:28:43.462Z,17.43
2018-12-25T20:34:38.473Z,18.67
2018-12-25T20:40:33.433Z,12.58
2018-12-25T20:46:28.448Z,15.24
2018-12-25T20:52:23.485Z,12.14
2018-12-25T20:58:18.481Z,11.63
2018-12-25T21:04:13.457Z,10.09
2018-12-25T21:10:08.451Z,26.25
2018-12-25T21:16:03.482Z,7.69
2018-12-25T21:21:58.452Z,6.32
2018-12-25T21:27:53.466Z,5.67
2018-12-25T21:33:48.464Z,5.46
2018-12-25T21:39:43.457Z,4.47
2018-12-25T21:45:38.465Z,4.59
2018-12-25T21:51:33.463Z,5.92
2018-12-25T21:57:28.482Z,5.87
2018-12-25T22:03:23.488Z,8.53
2018-12-25T22:09:18.493Z,6.98
2018-12-25T22:15:13.473Z,6.09
2018-12-25T22:21:08.497Z,4.63
2018-12-25T22:27:03.485Z,4.29
2018-12-25T22:32:58.488Z,5.75
2018-12-25T22:38:53.506Z,4.48
2018-12-25T22:44:48.492Z,4.38
2018-12-25T22:50:43.513Z,6.14
2018-12-25T22:56:38.527Z,5.78
2018-12-25T23:02:33.501Z,5.19
2018-12-25T23:08:28.509Z,4.87
2018-12-25T23:14:23.507Z,4.84
2018-12-25T23:20:18.505Z,3.79
2018-12-25T23:26:13.516Z,7.3
2018-12-25T23:32:08.506Z,7.34
2018-12-25T23:38:03.520Z,7.09
2018-12-25T23:43:58.516Z,7.65
2018-12-25T23:49:53.515Z,7.5
2018-12-25T23:55:52.873Z,5.92
